createdAt,value
2017-12-05T00:00:17.946Z,98682.87
2017-12-05T00:00:49.585Z,98681.63
2017-12-05T00:01:21.246Z,98683.75
2017-12-05T00:01:53.179Z,98685.88
2017-12-05T00:02:24.818Z,98679.10
2017-12-05T00:02:56.499Z,98681.66
2017-12-05T00:03:28.118Z,98675.27
2017-12-05T00:03:59.786Z,98680.38
2017-12-05T00:04:31.415Z,98682.54
2017-12-05T00:05:03.042Z,98681.27
2017-12-05T00:05:34.674Z,98678.70
2017-12-05T00:06:06.310Z,98683.42
2017-12-05T00:06:37.953Z,98674.06
2017-12-05T00:07:09.595Z,98674.45
2017-12-05T00:07:41.223Z,98673.20
2017-12-05T00:08:12.890Z,98675.34
2017-12-05T00:08:44.530Z,98682.54
2017-12-05T00:09:16.206Z,98677.47
2017-12-05T00:09:47.833Z,98687.25
2017-12-05T00:10:19.459Z,98680.41
2017-12-05T00:10:51.325Z,98672.78
2017-12-05T00:11:22.949Z,98676.19
2017-12-05T00:11:54.683Z,98677.47
2017-12-05T00:12:26.321Z,98673.63
2017-12-05T00:12:57.983Z,98677.50
2017-12-05T00:13:29.842Z,98677.92
2017-12-05T00:14:01.466Z,98674.52
2017-12-05T00:14:33.446Z,98671.53
2017-12-05T00:15:05.067Z,98674.48
2017-12-05T00:15:36.694Z,98671.97
2017-12-05T00:16:08.361Z,98670.69
2017-12-05T00:16:39.987Z,98677.07
2017-12-05T00:17:11.658Z,98676.22
2017-12-05T00:17:43.281Z,98677.95
2017-12-05T00:18:14.922Z,98673.73
2017-12-05T00:18:46.545Z,98679.20
2017-12-05T00:19:18.284Z,98671.93
2017-12-05T00:19:49.962Z,98673.20
2017-12-05T00:20:21.582Z,98682.58
2017-12-05T00:20:53.516Z,98678.35
2017-12-05T00:21:25.160Z,98677.14
2017-12-05T00:21:56.800Z,98673.77
2017-12-05T00:22:28.440Z,98675.10
2017-12-05T00:23:00.085Z,98678.11
2017-12-05T00:23:31.725Z,98678.56
2017-12-05T00:24:03.364Z,98673.89
2017-12-05T00:24:35.010Z,98679.00
2017-12-05T00:25:06.674Z,98676.44
2017-12-05T00:25:38.304Z,98672.61
2017-12-05T00:26:10.129Z,98670.48
2017-12-05T00:26:41.885Z,98673.89
2017-12-05T00:27:13.526Z,98678.14
2017-12-05T00:27:45.750Z,98678.54
2017-12-05T00:28:17.383Z,98678.53
2017-12-05T00:28:49.067Z,98676.41
2017-12-05T00:29:20.694Z,98677.27
2017-12-05T00:29:52.324Z,98678.11
2017-12-05T00:30:23.946Z,98673.43
2017-12-05T00:30:55.570Z,98674.70
2017-12-05T00:31:27.199Z,98682.80
2017-12-05T00:31:58.822Z,98675.98
2017-12-05T00:32:30.559Z,98677.27
2017-12-05T00:33:02.199Z,98671.76
2017-12-05T00:33:33.846Z,98677.69
2017-12-05T00:34:05.509Z,98671.30
2017-12-05T00:34:37.131Z,98672.19
2017-12-05T00:35:08.766Z,98671.76
2017-12-05T00:35:40.408Z,98675.16
2017-12-05T00:36:12.051Z,98673.89
2017-12-05T00:36:43.692Z,98670.06
2017-12-05T00:37:15.334Z,98679.42
2017-12-05T00:37:47.896Z,98672.19
2017-12-05T00:38:20.094Z,98671.30
2017-12-05T00:38:51.796Z,98669.17
2017-12-05T00:39:23.445Z,98669.17
2017-12-05T00:39:55.082Z,98666.20
2017-12-05T00:40:26.721Z,98667.47
2017-12-05T00:40:58.366Z,98672.16
2017-12-05T00:41:30.005Z,98668.75
2017-12-05T00:42:01.650Z,98681.09
2017-12-05T00:42:33.288Z,98673.89
2017-12-05T00:43:04.934Z,98675.98
2017-12-05T00:43:36.576Z,98675.56
2017-12-05T00:44:08.250Z,98675.53
2017-12-05T00:44:39.883Z,98677.66
2017-12-05T00:45:11.515Z,98672.97
2017-12-05T00:45:43.374Z,98676.41
2017-12-05T00:46:15.003Z,98674.25
2017-12-05T00:46:46.734Z,98678.94
2017-12-05T00:47:18.376Z,98684.05
2017-12-05T00:47:50.018Z,98680.61
2017-12-05T00:48:21.652Z,98681.03
2017-12-05T00:48:53.302Z,98684.41
2017-12-05T00:49:24.975Z,98678.88
2017-12-05T00:49:56.636Z,98686.92
2017-12-05T00:50:28.259Z,98681.39
2017-12-05T00:50:59.886Z,98689.87
2017-12-05T00:51:31.820Z,98691.61
2017-12-05T00:52:03.458Z,98692.43
2017-12-05T00:52:35.102Z,98691.16
2017-12-05T00:53:06.740Z,98689.87
2017-12-05T00:53:38.385Z,98692.83
2017-12-05T00:54:10.026Z,98694.56
2017-12-05T00:54:41.703Z,98695.38
2017-12-05T00:55:13.326Z,98689.42
2017-12-05T00:55:44.958Z,98691.94
2017-12-05T00:56:16.597Z,98686.83
2017-12-05T00:56:48.234Z,98687.69
2017-12-05T00:57:19.876Z,98690.23
2017-12-05T00:57:51.503Z,98689.81
2017-12-05T00:58:23.126Z,98688.08
2017-12-05T00:58:54.754Z,98695.28
2017-12-05T00:59:26.386Z,98694.86
2017-12-05T00:59:58.055Z,98695.25
2017-12-05T01:00:29.687Z,98687.58
2017-12-05T01:01:01.310Z,98692.70
2017-12-05T01:01:32.939Z,98696.07
2017-12-05T01:02:04.566Z,98683.69
2017-12-05T01:02:36.298Z,98686.62
2017-12-05T01:03:07.944Z,98688.33
2017-12-05T01:03:39.627Z,98689.61
2017-12-05T01:04:11.254Z,98690.86
2017-12-05T01:04:42.878Z,98689.61
2017-12-05T01:05:15.591Z,98687.91
2017-12-05T01:05:47.618Z,98684.53
2017-12-05T01:06:19.241Z,98687.48
2017-12-05T01:06:50.969Z,98684.53
2017-12-05T01:07:22.609Z,98692.20
2017-12-05T01:07:56.641Z,98692.17
2017-12-05T01:08:28.272Z,98698.13
2017-12-05T01:08:59.947Z,98693.41
2017-12-05T01:09:31.569Z,98693.80
2017-12-05T01:10:03.200Z,98686.98
2017-12-05T01:10:34.822Z,98685.78
2017-12-05T01:11:06.563Z,98689.58
2017-12-05T01:11:38.202Z,98682.77
2017-12-05T01:12:09.846Z,98681.48
2017-12-05T01:12:41.485Z,98688.76
2017-12-05T01:13:13.127Z,98682.80
2017-12-05T01:13:44.768Z,98679.81
2017-12-05T01:14:16.441Z,98678.11
2017-12-05T01:14:48.365Z,98678.11
2017-12-05T01:15:20.006Z,98681.48
2017-12-05T01:15:51.647Z,98677.23
2017-12-05T01:16:23.286Z,98683.69
2017-12-05T01:16:54.928Z,98681.55
2017-12-05T01:17:26.569Z,98682.83
2017-12-05T01:17:59.443Z,98679.85
2017-12-05T01:18:31.081Z,98683.69
2017-12-05T01:19:02.724Z,98681.09
2017-12-05T01:19:34.572Z,98680.70
2017-12-05T01:20:06.239Z,98686.27
2017-12-05T01:20:37.871Z,98682.44
2017-12-05T01:21:09.603Z,98680.31
2017-12-05T01:21:41.240Z,98686.30
2017-12-05T01:22:12.882Z,98688.01
2017-12-05T01:22:44.524Z,98684.64
2017-12-05T01:23:16.169Z,98678.67
2017-12-05T01:23:47.834Z,98682.08
2017-12-05T01:24:19.466Z,98685.52
2017-12-05T01:24:51.402Z,98688.50
2017-12-05T01:25:23.041Z,98686.41
2017-12-05T01:25:54.683Z,98684.25
2017-12-05T01:26:26.324Z,98688.53
2017-12-05T01:26:57.986Z,98692.37
2017-12-05T01:27:29.622Z,98686.83
2017-12-05T01:28:01.263Z,98691.09
2017-12-05T01:28:33.203Z,98694.10
2017-12-05T01:29:04.858Z,98689.81
2017-12-05T01:29:36.522Z,98694.52
2017-12-05T01:30:08.142Z,98690.30
2017-12-05T01:30:40.014Z,98696.23
2017-12-05T01:31:11.634Z,98691.58
2017-12-05T01:31:43.362Z,98693.31
2017-12-05T01:32:15.003Z,98686.50
2017-12-05T01:32:46.641Z,98686.50
2017-12-05T01:33:18.271Z,98686.92
2017-12-05T01:33:49.898Z,98691.64
2017-12-05T01:34:21.522Z,98685.69
2017-12-05T01:34:53.403Z,98683.98
2017-12-05T01:35:25.876Z,98689.94
2017-12-05T01:35:57.654Z,98689.94
2017-12-05T01:36:29.283Z,98683.55
2017-12-05T01:37:00.914Z,98687.84
2017-12-05T01:37:32.651Z,98686.95
2017-12-05T01:38:04.294Z,98684.83
2017-12-05T01:38:35.932Z,98682.67
2017-12-05T01:39:07.573Z,98684.83
2017-12-05T01:39:39.216Z,98682.31
2017-12-05T01:40:10.903Z,98679.78
2017-12-05T01:40:42.532Z,98681.91
2017-12-05T01:41:14.203Z,98678.91
2017-12-05T01:41:45.818Z,98682.31
2017-12-05T01:42:17.442Z,98679.75
2017-12-05T01:42:49.074Z,98679.33
2017-12-05T01:43:21.021Z,98684.47
2017-12-05T01:43:52.658Z,98678.88
2017-12-05T01:44:24.303Z,98680.15
2017-12-05T01:44:55.942Z,98688.66
2017-12-05T01:45:27.799Z,98679.78
2017-12-05T01:45:59.457Z,98683.62
2017-12-05T01:46:31.082Z,98685.71
2017-12-05T01:47:02.820Z,98682.34
2017-12-05T01:47:34.458Z,98688.30
2017-12-05T01:48:07.298Z,98679.36
2017-12-05T01:48:39.282Z,98683.19
2017-12-05T01:49:10.923Z,98676.38
2017-12-05T01:49:42.565Z,98677.23
2017-12-05T01:50:14.204Z,98678.11
2017-12-05T01:50:45.846Z,98682.41
2017-12-05T01:51:17.488Z,98677.72
2017-12-05T01:51:49.129Z,98678.54
2017-12-05T01:52:20.772Z,98678.14
2017-12-05T01:52:52.723Z,98678.14
2017-12-05T01:53:24.380Z,98679.39
2017-12-05T01:53:56.314Z,98676.84
2017-12-05T01:54:27.978Z,98672.19
2017-12-05T01:54:59.906Z,98680.27
2017-12-05T01:55:31.548Z,98676.02
2017-12-05T01:56:03.211Z,98675.98
2017-12-05T01:56:34.839Z,98675.98
2017-12-05T01:57:06.473Z,98675.98
2017-12-05T01:57:38.134Z,98680.27
2017-12-05T01:58:09.798Z,98683.67
2017-12-05T01:58:41.438Z,98673.46
2017-12-05T01:59:13.349Z,98676.87
2017-12-05T01:59:45.011Z,98682.83
2017-12-05T02:00:16.645Z,98676.84
2017-12-05T02:00:48.899Z,98673.43
2017-12-05T02:01:20.521Z,98681.13
2017-12-05T02:01:52.172Z,98678.56
2017-12-05T02:02:23.813Z,98678.56
2017-12-05T02:02:55.453Z,98678.56
2017-12-05T02:03:28.325Z,98675.16
2017-12-05T02:03:59.973Z,98678.56
2017-12-05T02:04:31.626Z,98681.94
2017-12-05T02:05:03.278Z,98680.70
2017-12-05T02:05:34.906Z,98677.69
2017-12-05T02:06:06.587Z,98674.28
2017-12-05T02:06:38.218Z,98679.81
2017-12-05T02:07:09.858Z,98682.80
2017-12-05T02:07:41.482Z,98680.66
2017-12-05T02:08:13.122Z,98678.53
2017-12-05T02:08:45.053Z,98678.54
2017-12-05T02:09:17.001Z,98679.81
2017-12-05T02:09:48.643Z,98681.52
2017-12-05T02:10:20.315Z,98678.11
2017-12-05T02:10:51.963Z,98677.27
2017-12-05T02:11:23.631Z,98677.72
2017-12-05T02:11:55.258Z,98678.54
2017-12-05T02:12:26.926Z,98678.11
2017-12-05T02:12:58.550Z,98671.76
2017-12-05T02:13:30.715Z,98671.76
2017-12-05T02:14:02.391Z,98674.31
2017-12-05T02:14:34.032Z,98668.78
2017-12-05T02:15:05.677Z,98672.58
2017-12-05T02:15:37.316Z,98670.45
2017-12-05T02:16:09.269Z,98672.58
2017-12-05T02:16:40.942Z,98673.86
2017-12-05T02:17:12.570Z,98667.86
2017-12-05T02:17:44.235Z,98668.26
2017-12-05T02:18:15.861Z,98677.17
2017-12-05T02:18:48.438Z,98671.63
2017-12-05T02:19:20.060Z,98669.50
2017-12-05T02:19:51.918Z,98672.52
2017-12-05T02:20:23.542Z,98674.25
2017-12-05T02:20:55.199Z,98669.54
2017-12-05T02:21:26.834Z,98673.80
2017-12-05T02:21:58.485Z,98674.58
2017-12-05T02:22:30.159Z,98671.17
2017-12-05T02:23:01.789Z,98672.00
2017-12-05T02:23:33.417Z,98668.59
2017-12-05T02:24:05.039Z,98670.30
2017-12-05T02:24:36.768Z,98678.80
2017-12-05T02:25:08.407Z,98676.64
2017-12-05T02:25:40.049Z,98676.22
2017-12-05T02:26:11.693Z,98674.52
2017-12-05T02:26:43.375Z,98664.27
2017-12-05T02:27:14.998Z,98666.39
2017-12-05T02:27:46.622Z,98665.55
2017-12-05T02:28:18.261Z,98669.38
2017-12-05T02:28:49.909Z,98674.02
2017-12-05T02:29:21.544Z,98664.69
2017-12-05T02:29:53.184Z,98666.82
2017-12-05T02:30:24.831Z,98671.44
2017-12-05T02:30:56.470Z,98667.14
2017-12-05T02:31:28.142Z,98661.61
2017-12-05T02:31:59.762Z,98658.59
2017-12-05T02:32:31.399Z,98664.09
2017-12-05T02:33:03.039Z,98669.66
2017-12-05T02:33:34.681Z,98660.30
2017-12-05T02:34:06.319Z,98666.22
2017-12-05T02:34:37.960Z,98659.41
2017-12-05T02:35:09.602Z,98667.50
2017-12-05T02:35:41.244Z,98662.84
2017-12-05T02:36:12.886Z,98659.83
2017-12-05T02:36:44.558Z,98663.23
2017-12-05T02:37:16.178Z,98661.54
2017-12-05T02:37:48.124Z,98654.30
2017-12-05T02:38:19.767Z,98653.45
2017-12-05T02:38:51.403Z,98652.13
2017-12-05T02:39:23.046Z,98655.50
2017-12-05T02:39:54.687Z,98656.86
2017-12-05T02:40:26.331Z,98658.13
2017-12-05T02:40:57.971Z,98658.63
2017-12-05T02:41:29.615Z,98660.37
2017-12-05T02:42:01.284Z,98654.44
2017-12-05T02:42:32.906Z,98656.96
2017-12-05T02:43:04.849Z,98663.77
2017-12-05T02:43:36.487Z,98657.81
2017-12-05T02:44:08.129Z,98656.53
2017-12-05T02:44:39.771Z,98656.99
2017-12-05T02:45:11.415Z,98653.63
2017-12-05T02:45:43.056Z,98651.92
2017-12-05T02:46:14.766Z,98660.44
2017-12-05T02:46:46.403Z,98657.06
2017-12-05T02:47:18.034Z,98654.93
2017-12-05T02:47:49.666Z,98651.53
2017-12-05T02:48:21.536Z,98652.80
2017-12-05T02:48:53.235Z,98655.81
2017-12-05T02:49:24.862Z,98654.12
2017-12-05T02:49:56.500Z,98652.84
2017-12-05T02:50:28.140Z,98655.00
2017-12-05T02:50:59.782Z,98648.16
2017-12-05T02:51:31.426Z,98652.45
2017-12-05T02:52:03.066Z,98648.19
2017-12-05T02:52:34.709Z,98650.35
2017-12-05T02:53:06.349Z,98652.45
2017-12-05T02:53:38.015Z,98648.61
2017-12-05T02:54:09.642Z,98659.26
2017-12-05T02:54:41.515Z,98652.05
2017-12-05T02:55:13.146Z,98655.46
2017-12-05T02:55:44.873Z,98652.91
2017-12-05T02:56:16.735Z,98657.16
2017-12-05T02:56:48.366Z,98656.28
2017-12-05T02:57:20.112Z,98656.70
2017-12-05T02:57:51.779Z,98654.58
2017-12-05T02:58:23.414Z,98660.53
2017-12-05T02:58:55.041Z,98656.31
2017-12-05T02:59:26.675Z,98660.14
2017-12-05T02:59:58.315Z,98654.61
2017-12-05T03:00:29.950Z,98661.45
2017-12-05T03:01:01.593Z,98654.64
2017-12-05T03:01:33.234Z,98666.59
2017-12-05T03:02:04.876Z,98660.20
2017-12-05T03:02:36.521Z,98663.19
2017-12-05T03:03:08.182Z,98658.08
2017-12-05T03:03:39.810Z,98661.45
2017-12-05T03:04:11.441Z,98664.03
2017-12-05T03:04:43.085Z,98663.19
2017-12-05T03:05:14.727Z,98653.42
2017-12-05T03:05:46.369Z,98657.66
2017-12-05T03:06:18.011Z,98656.83
2017-12-05T03:06:49.678Z,98662.37
2017-12-05T03:07:21.306Z,98660.27
2017-12-05T03:07:52.966Z,98656.86
2017-12-05T03:08:24.598Z,98653.48
2017-12-05T03:08:56.474Z,98659.45
2017-12-05T03:09:28.094Z,98661.16
2017-12-05T03:09:59.717Z,98659.42
2017-12-05T03:10:32.222Z,98655.12
2017-12-05T03:11:03.851Z,98658.99
2017-12-05T03:11:35.482Z,98664.09
2017-12-05T03:12:07.143Z,98658.99
2017-12-05T03:12:38.771Z,98659.41
2017-12-05T03:13:10.407Z,98658.14
2017-12-05T03:13:42.030Z,98657.32
2017-12-05T03:14:13.872Z,98662.42
2017-12-05T03:14:45.510Z,98660.33
2017-12-05T03:15:17.155Z,98659.51
2017-12-05T03:15:48.793Z,98662.91
2017-12-05T03:16:20.418Z,98662.52
2017-12-05T03:16:52.051Z,98656.16
2017-12-05T03:17:23.898Z,98658.30
2017-12-05T03:17:55.526Z,98657.87
2017-12-05T03:18:27.146Z,98655.74
2017-12-05T03:18:58.766Z,98657.90
2017-12-05T03:19:30.595Z,98658.32
2017-12-05T03:20:02.237Z,98658.29
2017-12-05T03:20:33.885Z,98660.03
2017-12-05T03:21:05.519Z,98655.34
2017-12-05T03:21:37.165Z,98658.75
2017-12-05T03:22:08.807Z,98660.91
2017-12-05T03:22:40.483Z,98658.78
2017-12-05T03:23:12.102Z,98654.07
2017-12-05T03:23:44.040Z,98660.45
2017-12-05T03:24:15.686Z,98658.78
2017-12-05T03:24:47.311Z,98660.48
2017-12-05T03:25:18.963Z,98660.08
2017-12-05T03:25:50.605Z,98661.78
2017-12-05T03:26:22.246Z,98662.18
2017-12-05T03:26:53.888Z,98663.45
2017-12-05T03:27:25.533Z,98653.67
2017-12-05T03:27:57.199Z,98660.48
2017-12-05T03:28:28.846Z,98655.80
2017-12-05T03:29:00.467Z,98661.76
2017-12-05T03:29:32.105Z,98660.45
2017-12-05T03:30:03.741Z,98663.45
2017-12-05T03:30:35.420Z,98662.19
2017-12-05T03:31:07.052Z,98653.67
2017-12-05T03:31:38.680Z,98662.61
2017-12-05T03:32:10.302Z,98663.03
2017-12-05T03:32:41.949Z,98660.45
2017-12-05T03:33:13.592Z,98654.92
2017-12-05T03:33:45.233Z,98653.19
2017-12-05T03:34:16.878Z,98652.37
2017-12-05T03:34:48.516Z,98653.61
2017-12-05T03:35:20.161Z,98652.34
2017-12-05T03:35:51.834Z,98653.13
2017-12-05T03:36:23.458Z,98652.12
2017-12-05T03:36:55.266Z,98653.27
2017-12-05T03:37:26.890Z,98655.81
2017-12-05T03:37:58.547Z,98654.18
2017-12-05T03:38:30.174Z,98650.81
2017-12-05T03:39:01.798Z,98656.41
2017-12-05T03:39:33.427Z,98656.41
2017-12-05T03:40:05.047Z,98651.72
2017-12-05T03:40:36.710Z,98655.59
2017-12-05T03:41:08.374Z,98654.80
2017-12-05T03:41:39.994Z,98657.31
2017-12-05T03:42:11.618Z,98651.42
2017-12-05T03:42:43.450Z,98652.70
2017-12-05T03:43:15.097Z,98650.12
2017-12-05T03:43:46.995Z,98652.67
2017-12-05T03:44:18.626Z,98659.48
2017-12-05T03:44:50.255Z,98662.88
2017-12-05T03:45:21.878Z,98657.35
2017-12-05T03:45:53.541Z,98659.45
2017-12-05T03:46:25.171Z,98655.95
2017-12-05T03:46:56.897Z,98655.85
2017-12-05T03:47:28.527Z,98657.48
2017-12-05T03:48:00.182Z,98656.11
2017-12-05T03:48:31.842Z,98653.48
2017-12-05T03:49:04.495Z,98653.88
2017-12-05T03:49:36.337Z,98650.53
2017-12-05T03:50:07.988Z,98661.67
2017-12-05T03:50:39.642Z,98664.66
2017-12-05T03:51:11.290Z,98662.56
2017-12-05T03:51:42.918Z,98660.86
2017-12-05T03:52:14.854Z,98653.63
2017-12-05T03:52:46.530Z,98659.52
2017-12-05T03:53:18.151Z,98656.89
2017-12-05T03:53:49.804Z,98657.31
2017-12-05T03:54:21.647Z,98661.15
2017-12-05T03:54:53.278Z,98654.76
2017-12-05T03:55:25.012Z,98653.05
2017-12-05T03:55:56.655Z,98656.39
2017-12-05T03:56:28.293Z,98653.38
2017-12-05T03:56:59.937Z,98652.84
2017-12-05T03:57:31.581Z,98655.78
2017-12-05T03:58:03.211Z,98663.45
2017-12-05T03:58:34.862Z,98657.91
2017-12-05T03:59:06.490Z,98661.32
2017-12-05T03:59:38.153Z,98654.58
2017-12-05T04:00:09.789Z,98657.17
2017-12-05T04:00:41.431Z,98652.95
2017-12-05T04:01:13.057Z,98652.98
2017-12-05T04:01:45.142Z,98657.77
2017-12-05T04:02:16.774Z,98658.63
2017-12-05T04:02:48.613Z,98658.66
2017-12-05T04:03:20.238Z,98651.00
2017-12-05T04:03:51.870Z,98653.59
2017-12-05T04:04:23.543Z,98655.72
2017-12-05T04:04:55.225Z,98661.28
2017-12-05T04:05:26.858Z,98657.48
2017-12-05T04:05:58.487Z,98655.78
2017-12-05T04:06:30.110Z,98656.67
2017-12-05T04:07:01.806Z,98655.39
2017-12-05T04:07:33.407Z,98659.23
2017-12-05T04:08:05.038Z,98664.80
2017-12-05T04:08:36.874Z,98662.23
2017-12-05T04:09:08.623Z,98660.11
2017-12-05T04:09:41.258Z,98658.83
2017-12-05T04:10:13.136Z,98661.81
2017-12-05T04:10:44.811Z,98662.66
2017-12-05T04:11:16.434Z,98666.92
2017-12-05T04:11:48.368Z,98660.11
2017-12-05T04:12:20.010Z,98660.14
2017-12-05T04:12:51.649Z,98662.30
2017-12-05T04:13:23.291Z,98660.14
2017-12-05T04:13:55.185Z,98657.63
2017-12-05T04:14:26.819Z,98655.49
2017-12-05T04:14:58.447Z,98657.66
2017-12-05T04:15:30.070Z,98658.11
2017-12-05T04:16:01.746Z,98653.39
2017-12-05T04:16:33.366Z,98661.52
2017-12-05T04:17:04.999Z,98659.81
2017-12-05T04:17:36.736Z,98657.26
2017-12-05T04:18:08.424Z,98661.94
2017-12-05T04:18:40.036Z,98659.42
2017-12-05T04:19:11.992Z,98658.99
2017-12-05T04:19:43.623Z,98656.83
2017-12-05T04:20:15.489Z,98658.11
2017-12-05T04:20:47.120Z,98658.56
2017-12-05T04:21:18.791Z,98659.39
2017-12-05T04:21:50.426Z,98653.42
2017-12-05T04:22:22.050Z,98655.12
2017-12-05T04:22:53.679Z,98652.61
2017-12-05T04:23:25.412Z,98651.36
2017-12-05T04:23:57.050Z,98655.62
2017-12-05T04:24:29.311Z,98659.45
2017-12-05T04:25:00.958Z,98654.77
2017-12-05T04:25:32.642Z,98658.17
2017-12-05T04:26:04.270Z,98659.48
2017-12-05T04:26:35.898Z,98656.50
2017-12-05T04:27:07.522Z,98658.69
2017-12-05T04:27:39.158Z,98657.38
2017-12-05T04:28:10.803Z,98655.28
2017-12-05T04:28:42.445Z,98655.67
2017-12-05T04:29:14.084Z,98655.28
2017-12-05T04:29:45.727Z,98653.58
2017-12-05T04:30:17.371Z,98653.19
2017-12-05T04:30:49.043Z,98652.34
2017-12-05T04:31:20.670Z,98657.44
2017-12-05T04:31:52.530Z,98654.89
2017-12-05T04:32:24.150Z,98657.47
2017-12-05T04:32:55.887Z,98660.45
2017-12-05T04:33:27.526Z,98663.00
2017-12-05T04:33:59.171Z,98653.67
2017-12-05T04:34:30.810Z,98657.92
2017-12-05T04:35:02.452Z,98654.09
2017-12-05T04:35:34.126Z,98655.38
2017-12-05T04:36:05.745Z,98654.09
2017-12-05T04:36:37.380Z,98656.65
2017-12-05T04:37:09.022Z,98656.65
2017-12-05T04:37:40.666Z,98656.65
2017-12-05T04:38:12.303Z,98654.55
2017-12-05T04:38:43.947Z,98660.94
2017-12-05T04:39:15.592Z,98652.00
2017-12-05T04:39:47.229Z,98652.45
2017-12-05T04:40:18.871Z,98655.43
2017-12-05T04:40:50.533Z,98655.43
2017-12-05T04:41:22.402Z,98659.69
2017-12-05T04:41:54.034Z,98652.91
2017-12-05T04:42:25.654Z,98652.06
2017-12-05T04:42:57.391Z,98655.03
2017-12-05T04:43:29.029Z,98651.20
2017-12-05T04:44:00.672Z,98654.61
2017-12-05T04:44:32.313Z,98655.89
2017-12-05T04:45:03.933Z,98652.48
2017-12-05T04:45:35.600Z,98652.48
2017-12-05T04:46:07.240Z,98654.19
2017-12-05T04:46:38.884Z,98655.46
2017-12-05T04:47:10.514Z,98653.76
2017-12-05T04:47:42.168Z,98658.44
2017-12-05T04:48:13.847Z,98653.36
2017-12-05T04:48:45.470Z,98649.95
2017-12-05T04:49:17.328Z,98655.06
2017-12-05T04:49:48.954Z,98654.21
2017-12-05T04:50:20.685Z,98654.67
2017-12-05T04:50:52.323Z,98654.21
2017-12-05T04:51:23.968Z,98652.97
2017-12-05T04:51:55.610Z,98648.71
2017-12-05T04:52:27.249Z,98650.81
2017-12-05T04:52:58.897Z,98651.27
2017-12-05T04:53:30.567Z,98654.27
2017-12-05T04:54:02.190Z,98649.17
2017-12-05T04:54:34.013Z,98653.81
2017-12-05T04:55:05.658Z,98655.06
2017-12-05T04:55:37.411Z,98657.22
2017-12-05T04:56:09.052Z,98661.90
2017-12-05T04:56:40.694Z,98655.52
2017-12-05T04:57:12.343Z,98652.09
2017-12-05T04:57:43.978Z,98652.94
2017-12-05T04:58:15.620Z,98656.31
2017-12-05T04:58:47.259Z,98649.08
2017-12-05T04:59:18.901Z,98652.09
2017-12-05T04:59:50.586Z,98649.08
2017-12-05T05:00:22.215Z,98646.53
2017-12-05T05:00:53.846Z,98649.50
2017-12-05T05:01:25.779Z,98651.20
2017-12-05T05:01:57.425Z,98649.47
2017-12-05T05:02:29.370Z,98646.07
2017-12-05T05:03:01.016Z,98650.27
2017-12-05T05:03:32.653Z,98649.39
2017-12-05T05:04:04.314Z,98650.63
2017-12-05T05:04:35.958Z,98655.28
2017-12-05T05:05:07.614Z,98652.27
2017-12-05T05:05:39.286Z,98653.52
2017-12-05T05:06:10.950Z,98650.88
2017-12-05T05:06:42.777Z,98651.69
2017-12-05T05:07:14.403Z,98655.49
2017-12-05T05:07:46.034Z,98645.63
2017-12-05T05:08:17.663Z,98646.45
2017-12-05T05:08:49.282Z,98648.12
2017-12-05T05:09:20.930Z,98648.52
2017-12-05T05:09:52.850Z,98650.64
2017-12-05T05:10:24.576Z,98645.53
2017-12-05T05:10:56.562Z,98639.54
2017-12-05T05:11:28.214Z,98649.36
2017-12-05T05:11:59.854Z,98647.23
2017-12-05T05:12:31.487Z,98647.62
2017-12-05T05:13:03.243Z,98646.38
2017-12-05T05:13:35.080Z,98647.20
2017-12-05T05:14:06.721Z,98644.61
2017-12-05T05:14:38.361Z,98648.87
2017-12-05T05:15:10.001Z,98647.17
2017-12-05T05:15:41.646Z,98648.91
2017-12-05T05:16:13.306Z,98648.87
2017-12-05T05:16:44.950Z,98645.89
2017-12-05T05:17:16.602Z,98647.59
2017-12-05T05:17:48.522Z,98654.76
2017-12-05T05:18:20.160Z,98651.84
2017-12-05T05:18:51.826Z,98648.02
2017-12-05T05:19:23.469Z,98655.64
2017-12-05T05:19:55.119Z,98649.72
2017-12-05T05:20:26.747Z,98649.69
2017-12-05T05:20:58.586Z,98642.88
2017-12-05T05:21:30.882Z,98652.20
2017-12-05T05:22:02.584Z,98647.55
2017-12-05T05:22:34.240Z,98645.88
2017-12-05T05:23:05.907Z,98650.11
2017-12-05T05:23:37.566Z,98653.48
2017-12-05T05:24:09.218Z,98643.69
2017-12-05T05:24:40.846Z,98647.95
2017-12-05T05:25:12.474Z,98645.78
2017-12-05T05:25:44.142Z,98648.77
2017-12-05T05:26:15.970Z,98650.08
2017-12-05T05:26:48.158Z,98647.09
2017-12-05T05:27:19.869Z,98643.69
2017-12-05T05:27:51.561Z,98645.81
2017-12-05T05:28:23.210Z,98642.87
2017-12-05T05:28:54.863Z,98647.98
2017-12-05T05:29:26.503Z,98643.69
2017-12-05T05:29:58.155Z,98640.74
2017-12-05T05:30:29.801Z,98642.84
2017-12-05T05:31:01.454Z,98637.77
2017-12-05T05:31:33.082Z,98635.20
2017-12-05T05:32:04.706Z,98639.43
2017-12-05T05:32:36.550Z,98636.87
2017-12-05T05:33:08.243Z,98638.16
2017-12-05T05:33:39.929Z,98628.36
2017-12-05T05:34:11.570Z,98633.93
2017-12-05T05:34:43.211Z,98636.48
2017-12-05T05:35:14.858Z,98632.62
2017-12-05T05:35:46.493Z,98631.38
2017-12-05T05:36:18.138Z,98635.63
2017-12-05T05:36:50.039Z,98630.13
2017-12-05T05:37:21.728Z,98631.02
2017-12-05T05:37:53.367Z,98633.64
2017-12-05T05:38:25.009Z,98626.87
2017-12-05T05:38:56.693Z,98625.23
2017-12-05T05:39:28.322Z,98637.58
2017-12-05T05:39:59.956Z,98629.56
2017-12-05T05:40:31.606Z,98631.30
2017-12-05T05:41:03.242Z,98625.30
2017-12-05T05:41:34.880Z,98629.16
2017-12-05T05:42:06.510Z,98627.47
2017-12-05T05:42:38.148Z,98625.76
2017-12-05T05:43:09.799Z,98625.80
2017-12-05T05:43:41.457Z,98628.34
2017-12-05T05:44:13.127Z,98629.63
2017-12-05T05:44:44.750Z,98630.08
2017-12-05T05:45:16.379Z,98632.21
2017-12-05T05:45:48.031Z,98632.17
2017-12-05T05:46:19.670Z,98627.98
2017-12-05T05:46:51.293Z,98628.87
2017-12-05T05:47:22.926Z,98628.05
2017-12-05T05:47:54.621Z,98620.39
2017-12-05T05:48:26.516Z,98627.66
2017-12-05T05:48:58.162Z,98626.80
2017-12-05T05:49:29.823Z,98628.08
2017-12-05T05:50:01.503Z,98623.41
2017-12-05T05:50:33.386Z,98625.95
2017-12-05T05:51:05.032Z,98626.41
2017-12-05T05:51:36.982Z,98626.02
2017-12-05T05:52:08.621Z,98625.59
2017-12-05T05:52:40.262Z,98622.22
2017-12-05T05:53:11.904Z,98627.75
2017-12-05T05:53:43.550Z,98630.73
2017-12-05T05:54:15.190Z,98630.30
2017-12-05T05:54:46.833Z,98629.48
2017-12-05T05:55:18.558Z,98631.61
2017-12-05T05:55:50.182Z,98630.75
2017-12-05T05:56:21.811Z,98628.63
2017-12-05T05:56:53.442Z,98629.05
2017-12-05T05:57:25.062Z,98628.23
2017-12-05T05:57:56.690Z,98622.25
2017-12-05T05:58:28.323Z,98630.78
2017-12-05T05:58:59.966Z,98634.19
2017-12-05T05:59:31.607Z,98630.78
2017-12-05T06:00:03.251Z,98631.61
2017-12-05T06:00:34.891Z,98635.89
2017-12-05T06:01:06.533Z,98633.77
2017-12-05T06:01:38.177Z,98635.89
2017-12-05T06:02:09.816Z,98633.34
2017-12-05T06:02:41.441Z,98631.21
2017-12-05T06:03:13.995Z,98638.02
2017-12-05T06:03:45.625Z,98633.73
2017-12-05T06:04:17.255Z,98640.12
2017-12-05T06:04:48.878Z,98636.74
2017-12-05T06:05:20.502Z,98635.07
2017-12-05T06:05:52.170Z,98633.80
2017-12-05T06:06:23.798Z,98630.36
2017-12-05T06:06:55.422Z,98631.64
2017-12-05T06:07:27.042Z,98633.77
2017-12-05T06:07:58.803Z,98626.53
2017-12-05T06:08:30.444Z,98631.21
2017-12-05T06:09:02.123Z,98628.69
2017-12-05T06:09:33.754Z,98632.09
2017-12-05T06:10:05.382Z,98628.27
2017-12-05T06:10:37.009Z,98626.56
2017-12-05T06:11:08.653Z,98632.06
2017-12-05T06:11:40.295Z,98635.06
2017-12-05T06:12:11.935Z,98630.84